Date,TemperatureHighF,TemperatureAvgF,TemperatureLowF,DewpointHighF,DewpointAvgF,DewpointLowF,HumidityHigh,HumidityAvg,HumidityLow,PressureMaxIn,PressureMinIn,WindSpeedMaxMPH,WindSpeedAvgMPH,GustSpeedMaxMPH,PrecipitationSumIn
2013-1-1,83,67,54,63,59,53,97,78,47,0.00,40.00,6,2,17,0.00
2013-1-2,83,66,54,68,60,53,98,85,55,0.00,40.00,5,1,11,0.00
2013-1-3,84,68,59,70,62,58,98,84,43,0.00,40.00,7,2,13,0.00
2013-1-4,84,70,62,69,65,61,98,87,57,0.00,40.00,4,2,9,0.00
2013-1-5,81,69,63,67,64,62,97,86,62,0.00,40.00,4,2,10,0.00
2013-1-6,84,70,61,71,66,60,98,88,55,0.00,40.00,3,1,10,0.00
2013-1-7,79,70,64,69,66,63,98,88,67,0.00,40.00,5,2,12,0.00
2013-1-8,86,74,67,70,67,64,96,81,52,0.00,40.00,4,3,16,0.00
2013-1-9,86,73,65,71,67,64,97,82,49,0.00,40.00,6,2,14,0.00
2013-1-10,86,73,65,69,64,60,97,77,42,0.00,40.00,6,3,16,0.00
2013-1-11,84,69,58,68,62,57,97,81,47,0.00,40.00,4,2,11,0.00
2013-1-12,86,70,59,69,63,58,97,83,50,0.00,40.00,4,1,12,0.00
2013-1-13,84,67,58,68,61,57,98,85,55,0.00,40.00,4,1,12,0.00
2013-1-14,82,67,57,65,60,56,97,81,50,0.00,40.00,4,1,14,0.00
2013-1-15,83,68,55,67,61,54,97,81,50,0.00,40.00,4,1,10,0.00
2013-1-16,84,68,54,68,60,53,97,80,45,0.00,40.00,5,2,12,0.00
2013-1-17,83,68,60,70,61,49,97,80,49,0.00,40.00,7,3,16,0.00
2013-1-18,69,58,51,56,49,40,96,74,51,0.00,40.00,5,2,12,0.00
2013-1-19,75,66,58,63,60,56,96,84,64,0.00,40.00,4,2,10,0.00
2013-1-20,81,69,61,66,64,60,97,85,55,0.00,40.00,4,1,8,0.00
2013-1-21,78,68,59,67,64,58,97,87,64,0.00,40.00,4,2,13,0.00
2013-1-22,73,62,53,58,53,45,97,74,48,0.00,40.00,5,3,12,0.00
2013-1-23,75,60,52,51,47,41,91,65,35,0.00,40.00,5,3,12,0.00
2013-1-24,78,58,46,50,45,41,96,70,27,0.00,40.00,5,2,10,0.00
2013-1-25,79,57,42,56,48,41,97,78,37,0.00,40.00,4,1,9,0.00
2013-1-26,80,59,45,54,48,43,97,72,27,0.00,40.00,4,1,11,0.00
2013-1-27,83,65,49,61,54,48,97,73,41,0.00,40.00,5,2,11,0.00
2013-1-28,85,68,56,63,59,55,97,75,43,0.00,40.00,5,2,12,0.00
2013-1-29,86,70,58,69,62,57,97,79,45,0.00,40.00,6,2,14,0.00
2013-1-30,84,69,58,68,61,57,97,80,50,0.00,40.00,8,3,20,0.00
2013-1-31,70,61,49,60,52,37,97,73,51,0.00,40.00,4,3,12,0.05
2013-2-1,73,54,38,46,39,35,92,61,26,0.00,40.00,6,3,15,0.01
2013-2-2,78,59,41,54,44,38,96,64,32,0.00,40.00,5,2,15,0.00
2013-2-3,76,58,44,47,40,30,96,61,19,0.00,40.00,5,2,12,0.00
2013-2-4,76,57,36,54,43,28,96,68,19,0.00,40.00,4,1,10,0.00
2013-2-5,82,61,42,59,50,41,96,72,39,0.00,40.00,4,1,11,0.00
2013-2-6,85,67,51,64,58,50,97,75,42,0.00,40.00,3,1,9,0.00
2013-2-7,84,67,55,68,58,54,97,78,43,0.00,40.00,6,2,13,0.00
2013-2-8,85,70,57,70,61,51,97,77,31,0.00,40.00,5,3,17,0.00
2013-2-9,82,66,53,63,58,52,97,78,48,0.00,40.00,5,3,13,0.00
2013-2-10,85,71,57,61,59,56,95,71,40,0.00,40.00,6,3,14,0.00
2013-2-11,81,67,55,68,61,54,97,83,55,0.00,40.00,5,2,12,0.00
2013-2-12,84,66,54,68,61,53,97,86,58,0.00,40.00,6,2,15,0.00
2013-2-13,85,71,59,71,65,58,98,84,55,0.00,40.00,7,3,21,0.00
2013-2-14,79,66,59,71,63,56,97,91,71,0.00,40.00,7,4,28,1.66
2013-2-15,66,62,59,64,61,56,97,94,90,0.00,40.00,3,1,9,0.22
2013-2-16,71,63,50,61,54,47,97,75,45,0.00,40.00,8,3,19,0.01
2013-2-17,60,49,34,47,30,21,95,56,23,0.00,40.00,7,3,16,0.01
2013-2-18,72,49,32,51,40,30,95,74,36,0.00,40.00,6,2,18,0.00
2013-2-19,81,61,46,63,54,45,97,81,50,0.00,40.00,5,1,12,0.00
2013-2-20,83,66,53,65,56,52,97,77,39,0.00,40.00,4,1,9,0.00
2013-2-21,85,67,56,67,60,55,97,82,48,0.00,40.00,5,2,11,0.00
2013-2-22,87,69,55,72,63,54,97,82,51,0.00,40.00,6,2,14,0.00
2013-2-23,84,72,62,73,67,61,98,85,62,0.00,40.00,7,2,18,0.00
2013-2-24,87,74,63,74,66,62,98,80,46,0.00,40.00,6,2,13,0.00
2013-2-25,85,71,60,73,66,59,98,85,55,0.00,40.00,6,2,14,0.00
2013-2-26,85,75,68,72,70,67,97,84,63,0.00,40.00,10,4,25,0.00
2013-2-27,73,67,62,70,64,61,97,89,69,0.00,40.00,4,1,8,0.20
2013-2-28,74,63,58,61,56,48,97,81,40,0.00,40.00,3,2,9,0.14
2013-3-1,65,60,54,58,52,47,95,78,53,0.00,40.00,4,1,9,0.02
2013-3-2,66,56,47,51,43,38,93,65,43,0.00,40.00,7,2,15,0.01
2013-3-3,64,51,41,49,44,40,96,80,43,0.00,40.00,7,2,21,0.11
2013-3-4,72,50,32,47,38,31,96,70,26,0.00,40.00,6,2,12,0.01
2013-3-5,78,56,36,53,45,35,96,73,34,0.00,40.00,6,2,15,0.00
2013-3-6,77,58,42,64,48,35,97,73,27,0.00,40.00,7,3,18,0.01
2013-3-7,71,52,36,44,39,34,94,67,28,0.00,40.00,5,2,13,0.01
2013-3-8,80,57,37,50,43,36,96,68,24,0.00,40.00,4,2,10,0.00
2013-3-9,80,60,41,54,48,40,96,70,30,0.00,40.00,4,1,12,0.00
2013-3-10,80,66,49,58,52,47,96,67,38,0.00,40.00,6,3,16,0.00
2013-3-11,81,66,51,62,56,50,97,75,44,0.00,40.00,6,2,16,0.00
2013-3-12,77,67,57,67,62,56,97,85,64,0.00,40.00,8,3,18,0.00
2013-3-13,79,60,47,58,46,37,96,67,22,0.00,40.00,6,3,14,0.00
2013-3-14,75,56,44,47,39,26,95,61,17,0.00,40.00,6,3,15,0.00
2013-3-15,76,54,39,44,38,31,96,64,20,0.00,40.00,5,2,13,0.00
2013-3-16,82,58,40,54,45,39,96,69,25,0.00,40.00,5,1,11,0.00
2013-3-17,82,63,45,59,53,44,97,74,42,0.00,40.00,5,2,12,0.00
2013-3-18,81,67,56,70,63,55,97,89,60,0.00,40.00,5,2,15,0.57
2013-3-19,83,70,60,68,65,59,97,84,56,0.00,40.00,6,2,13,0.18
2013-3-20,87,67,56,67,58,53,97,79,32,0.00,40.00,7,2,15,0.07
2013-3-21,78,64,50,62,52,42,97,72,29,0.00,40.00,5,2,12,0.07
2013-3-22,83,64,47,69,57,46,97,82,58,0.00,40.00,7,2,15,0.01
2013-3-23,87,75,65,72,66,63,97,78,45,0.00,40.00,9,3,21,0.00
2013-3-24,84,75,63,73,69,62,97,84,63,0.00,40.00,10,5,24,0.14
2013-3-25,81,71,57,72,55,27,97,64,20,0.00,40.00,5,3,13,0.15
2013-3-26,69,57,41,45,39,34,88,54,29,0.00,40.00,7,4,18,0.00
2013-3-27,69,49,35,40,34,30,95,65,23,0.00,40.00,6,2,16,0.00
2013-3-28,76,65,46,42,35,29,86,41,18,0.00,40.00,4,2,12,0.00
2013-3-29,79,57,37,49,41,36,96,64,24,0.00,40.00,5,2,12,0.00
2013-3-30,81,62,45,55,50,44,96,70,34,0.00,40.00,4,2,11,0.00
2013-3-31,84,67,49,61,54,-100,96,72,42,0.00,40.00,6,2,16,0.00
2013-4-1,85,68,55,69,60,54,97,79,43,0.00,40.00,6,2,17,0.00
2013-4-2,88,70,58,69,61,57,98,76,37,0.00,40.00,5,2,12,0.00
2013-4-3,89,73,59,70,63,58,97,76,39,0.00,40.00,7,2,17,0.00
2013-4-4,83,69,64,71,66,63,97,90,64,0.00,40.00,7,2,17,0.28
2013-4-5,72,67,58,68,64,55,97,92,82,0.00,40.00,6,3,17,0.78
2013-4-6,81,66,56,60,57,55,97,75,48,0.00,40.00,5,2,12,0.01
2013-4-7,86,68,55,66,58,54,97,75,37,0.00,40.00,5,2,11,0.00
2013-4-8,87,71,57,64,59,56,97,71,36,0.00,40.00,5,2,11,0.00
2013-4-9,87,71,55,66,61,54,97,74,41,0.00,40.00,5,2,13,0.00
2013-4-10,87,73,61,72,67,60,97,83,52,0.00,40.00,5,2,15,0.02
2013-4-11,85,74,65,75,69,64,97,84,59,0.00,40.00,5,2,17,0.05
2013-4-12,89,78,70,74,71,67,97,80,50,0.00,40.00,7,3,18,0.04
2013-4-13,90,78,68,72,69,66,97,77,47,0.00,40.00,7,2,12,0.00
2013-4-14,90,77,64,75,69,63,97,79,53,0.00,40.00,7,2,16,0.00
2013-4-15,93,78,67,73,69,64,96,77,47,0.00,40.00,5,2,12,0.00
2013-4-16,93,78,65,72,68,64,97,76,44,0.00,40.00,7,2,15,0.00
2013-4-17,88,77,65,69,67,62,96,73,48,0.00,40.00,6,3,13,0.00
2013-4-18,90,76,63,70,66,62,96,75,47,0.00,40.00,6,2,12,0.00
2013-4-19,92,77,65,72,68,64,97,78,47,0.00,40.00,7,3,16,0.00
2013-4-20,91,77,65,74,69,64,97,80,48,0.00,40.00,4,2,12,0.01
2013-4-21,88,73,66,71,68,64,96,85,53,0.00,40.00,4,3,16,0.13
2013-4-22,85,72,67,71,68,66,96,87,61,0.00,40.00,4,2,9,0.24
2013-4-23,87,74,64,68,64,60,97,74,47,0.00,40.00,6,3,14,0.03
2013-4-24,89,72,55,67,60,54,96,71,36,0.00,40.00,4,2,11,0.00
2013-4-25,89,72,57,66,59,54,96,68,30,0.00,40.00,5,2,13,0.00
2013-4-26,88,71,55,64,59,54,96,71,41,0.00,40.00,7,2,14,0.00
2013-4-27,88,72,57,63,58,55,96,68,33,0.00,40.00,6,3,18,0.00
2013-4-28,87,73,62,65,60,-100,96,72,42,0.00,40.00,6,2,14,0.00
2013-4-29,86,70,58,69,63,57,96,81,51,0.00,40.00,5,2,12,0.72
2013-4-30,88,76,64,73,67,63,97,77,51,0.00,40.00,6,2,16,0.35
2013-5-1,84,70,62,74,67,61,97,91,65,0.00,40.00,4,1,9,0.28
2013-5-2,73,68,64,70,67,63,97,96,87,0.00,40.00,2,1,6,0.42
2013-5-3,87,72,62,69,64,61,97,79,46,0.00,40.00,6,2,16,0.01
2013-5-4,84,72,60,69,64,59,97,76,54,0.00,40.00,7,3,19,0.01
2013-5-5,82,68,58,62,58,54,96,74,38,0.00,40.00,4,2,13,0.00
2013-5-6,81,66,50,62,57,49,96,75,51,0.00,40.00,6,2,14,0.00
2013-5-7,82,65,53,60,57,52,96,78,44,0.00,40.00,7,2,17,0.00
2013-5-8,86,68,51,65,56,50,96,71,34,0.00,40.00,7,2,16,0.00
2013-5-9,88,68,50,63,58,49,96,75,40,0.00,40.00,4,1,12,0.00
2013-5-10,93,72,59,71,60,-100,96,75,40,0.00,40.00,6,2,13,0.00
2013-5-11,91,76,63,74,67,62,96,78,47,0.00,40.00,7,2,18,0.00
2013-5-12,89,75,65,74,67,-100,96,80,55,0.00,40.00,7,2,16,0.04
2013-5-13,90,75,64,69,66,63,96,76,44,0.00,40.00,4,2,11,0.04
2013-5-14,87,72,60,64,56,52,88,60,32,0.00,40.00,5,3,13,0.00
2013-5-15,86,69,53,60,56,52,96,70,36,0.00,40.00,5,2,13,0.00
2013-5-16,87,63,55,64,38,-100,96,70,37,0.00,40.00,4,1,9,0.00
2013-5-17,92,74,59,66,55,-100,96,68,34,0.00,40.00,4,2,10,0.00
2013-5-18,92,75,61,72,66,60,96,78,39,0.00,40.00,4,1,14,0.30
2013-5-19,90,75,64,72,68,63,96,80,48,0.00,40.00,4,1,12,0.84
2013-5-20,92,74,67,74,68,66,97,87,44,0.00,40.00,5,1,17,0.79
2013-5-21,91,74,66,76,69,65,97,87,48,0.00,40.00,7,2,18,1.00
2013-5-22,91,76,65,75,68,64,97,79,49,0.00,40.00,5,2,15,0.40
2013-5-23,91,77,64,73,67,63,97,74,45,0.00,40.00,5,2,14,0.00
2013-5-24,95,78,65,71,66,60,96,72,31,0.00,40.00,6,2,14,0.15
2013-5-25,92,77,64,72,66,63,96,73,42,0.00,40.00,5,2,15,0.15
2013-5-26,88,75,60,66,63,59,95,69,41,0.00,40.00,5,2,16,0.00
2013-5-27,88,75,62,69,66,61,96,75,53,0.00,40.00,6,3,14,0.00
2013-5-28,85,75,71,74,70,68,95,85,59,0.00,40.00,6,2,19,0.33
2013-5-29,82,73,69,74,70,68,96,92,75,0.00,40.00,5,2,13,1.14
2013-5-30,89,76,69,74,71,68,96,85,59,0.00,40.00,5,3,16,0.27
2013-5-31,88,76,69,78,72,68,96,87,57,0.00,40.00,5,2,13,0.33
2013-6-1,90,77,71,76,72,69,97,88,55,0.00,40.00,8,2,16,1.64
2013-6-2,92,78,68,76,69,-100,97,81,51,0.00,40.00,7,2,15,0.80
2013-6-3,84,77,71,74,72,69,96,86,69,0.00,40.00,4,2,10,0.00
2013-6-4,82,76,71,76,73,69,96,91,78,0.00,40.00,3,1,15,0.10
2013-6-5,79,76,74,77,74,72,96,94,90,0.00,40.00,4,2,12,0.33
2013-6-6,86,76,71,78,73,69,96,91,75,0.00,40.00,9,4,25,1.15
2013-6-7,86,78,71,76,74,69,96,87,69,0.00,40.00,7,2,15,1.14
2013-6-8,93,80,74,77,74,71,96,82,49,0.00,40.00,6,2,14,0.01
2013-6-9,93,82,72,76,72,68,96,75,45,0.00,40.00,5,2,13,0.00
2013-6-10,94,82,72,76,73,70,96,77,46,0.00,40.00,4,2,13,0.00
2013-6-11,94,79,71,77,72,69,96,84,48,0.00,40.00,5,1,16,0.60
2013-6-12,91,76,70,80,72,69,96,89,56,0.00,40.00,6,1,14,0.12
2013-6-13,92,75,67,76,69,65,96,85,51,0.00,40.00,5,1,14,0.01
2013-6-14,92,79,68,75,70,67,96,77,50,0.00,40.00,6,2,13,0.00
2013-6-15,93,80,67,75,71,66,96,77,46,0.00,40.00,5,2,10,0.00
2013-6-16,95,82,70,76,72,68,96,76,41,0.00,40.00,5,2,10,0.39
2013-6-17,97,80,71,76,72,69,96,80,40,0.00,40.00,4,1,15,0.86
2013-6-18,96,80,69,78,72,68,96,78,46,0.00,40.00,6,2,15,0.86
2013-6-19,97,79,70,77,72,68,96,83,42,0.00,40.00,5,1,14,0.65
2013-6-20,93,78,69,76,71,68,96,81,48,0.00,40.00,5,2,12,0.47
2013-6-22,94,85,74,74,71,69,91,66,46,0.00,40.00,4,2,10,0.03
2013-6-23,90,77,70,78,72,68,96,85,61,0.00,40.00,4,1,12,0.04
2013-6-24,92,80,70,75,72,69,96,78,47,0.00,40.00,6,2,14,0.01
2013-6-25,94,78,70,75,72,69,96,84,49,0.00,40.00,4,2,17,0.11
2013-6-26,90,77,71,76,72,70,96,88,55,0.00,40.00,4,2,11,0.63
2013-6-27,92,76,69,77,72,68,96,88,57,0.00,40.00,3,1,9,1.08
2013-6-28,91,78,69,77,72,68,96,83,54,0.00,40.00,6,1,15,0.43
2013-6-29,92,81,71,76,72,70,96,78,53,0.00,40.00,6,2,16,0.42
2013-6-30,90,79,73,78,74,71,96,86,59,0.00,40.00,7,2,18,0.46
2013-7-1,89,76,72,75,72,70,96,90,64,0.00,40.00,8,2,21,4.50
2013-7-2,89,77,72,77,73,70,96,89,66,0.00,40.00,4,2,17,1.14
2013-7-3,90,76,71,77,72,69,96,89,59,0.00,40.00,8,2,19,2.15
2013-7-4,92,79,70,77,73,69,96,82,49,0.00,40.00,5,2,15,0.65
2013-7-5,88,77,71,75,72,69,96,87,63,0.00,40.00,5,2,21,1.17
2013-7-6,92,80,73,78,73,69,96,81,47,0.00,40.00,5,2,13,0.09
2013-7-7,91,80,73,76,73,70,96,80,51,0.00,40.00,6,2,17,0.06
2013-7-8,93,80,72,76,71,66,96,79,43,0.00,40.00,5,2,14,0.01
2013-7-9,87,77,71,76,72,69,96,85,56,0.00,40.00,4,1,13,0.53
2013-7-10,91,75,70,74,67,-100,96,83,48,0.00,40.00,3,1,10,0.71
2013-7-11,90,79,71,77,72,70,96,81,55,0.00,40.00,4,2,11,0.62
2013-7-12,90,77,71,75,72,69,96,85,57,0.00,40.00,4,1,13,0.83
2013-7-13,81,74,71,76,72,70,96,92,74,0.00,40.00,6,2,16,1.18
2013-7-14,85,76,72,74,72,70,96,88,68,0.00,40.00,8,2,23,0.25
2013-7-15,89,78,71,73,71,69,96,81,55,0.00,40.00,5,2,12,0.01
2013-7-16,88,82,74,72,70,68,92,66,56,0.00,40.00,8,4,18,0.00
2013-7-17,87,77,71,72,70,68,95,80,59,0.00,40.00,6,3,15,0.05
2013-7-18,84,74,70,75,71,68,96,92,74,0.00,40.00,5,1,16,2.68
2013-7-19,91,79,70,76,72,69,96,82,52,0.00,40.00,4,2,10,0.04
2013-7-20,90,76,74,79,72,-100,96,89,61,0.00,40.00,4,1,11,0.43
2013-7-21,92,81,73,80,74,72,96,82,56,0.00,40.00,5,2,11,0.17
2013-7-22,94,80,72,77,73,71,96,83,49,0.00,40.00,4,1,11,0.00
2013-7-23,94,82,72,76,72,69,96,77,44,0.00,40.00,4,2,12,0.00
2013-7-24,91,81,71,76,71,68,96,76,49,0.00,40.00,6,2,15,0.00
2013-7-25,92,81,71,75,72,70,96,79,55,0.00,40.00,5,2,15,0.00
2013-7-26,94,81,73,76,73,71,96,79,50,0.00,40.00,6,2,18,0.00
2013-7-27,91,80,74,75,73,72,95,83,56,0.00,40.00,3,1,10,0.04
2013-7-28,93,80,71,76,71,67,96,78,46,0.00,40.00,5,1,10,0.04
2013-7-29,94,78,71,76,72,70,96,84,50,0.00,40.00,4,1,10,0.01
2013-7-30,89,78,73,78,74,71,96,87,61,0.00,40.00,4,1,16,0.27
2013-7-31,91,78,72,79,74,71,96,87,58,0.00,40.00,5,1,12,0.32
2013-8-1,96,77,72,77,72,67,96,86,41,0.00,40.00,5,1,14,0.17
2013-8-2,91,78,70,78,73,69,96,86,52,0.00,40.00,4,1,10,0.41
2013-8-3,92,78,74,78,74,71,96,91,58,0.00,40.00,5,1,10,1.13
2013-8-4,91,81,74,78,76,73,96,84,61,0.00,40.00,4,1,11,0.04
2013-8-5,88,79,74,80,76,73,96,89,69,0.00,40.00,4,1,11,0.14
2013-8-6,93,80,73,79,74,72,96,85,53,0.00,40.00,4,1,12,0.01
2013-8-7,93,79,73,79,75,72,100,88,51,0.00,40.00,3,1,18,1.20
2013-8-8,94,82,73,78,74,70,100,80,48,0.00,40.00,5,2,13,1.20
2013-8-9,90,78,73,78,73,72,99,89,56,0.00,40.00,5,2,15,1.04
2013-8-10,94,82,72,78,72,70,99,76,47,0.00,40.00,5,2,12,0.50
2013-8-11,95,83,74,77,74,68,98,76,45,0.00,40.00,4,2,11,0.01
2013-8-12,94,81,71,75,73,69,98,79,48,0.00,40.00,5,2,13,0.00
2013-8-13,96,80,73,77,72,-100,98,81,44,0.00,40.00,4,1,11,0.30
2013-8-14,94,79,72,79,71,-100,98,83,47,0.00,40.00,5,1,17,0.83
2013-8-15,87,75,73,77,67,-100,98,86,70,0.00,40.00,3,0,8,0.98
2013-8-16,95,80,74,78,71,-100,98,81,49,0.00,40.00,4,1,9,0.01
2013-8-17,93,81,74,81,75,71,98,84,49,0.00,40.00,4,1,11,0.01
2013-8-18,94,81,74,78,73,-100,98,82,53,0.00,40.00,5,2,13,0.35
2013-8-19,95,76,73,78,68,-100,97,85,50,0.00,40.00,5,2,16,0.97
2013-8-20,91,80,72,77,74,71,98,85,55,0.00,40.00,5,1,11,0.01
2013-8-21,93,81,75,79,75,73,97,84,57,0.00,40.00,5,2,14,0.05
2013-8-22,96,82,74,78,75,72,97,82,49,0.00,40.00,5,2,12,0.52
2013-8-23,92,78,73,80,74,72,97,90,52,0.00,40.00,5,1,14,1.44
2013-8-24,94,79,73,79,74,72,98,86,52,0.00,40.00,6,2,13,0.09
2013-8-25,90,79,74,77,73,-100,97,85,61,0.00,40.00,4,2,10,0.02
2013-8-26,90,78,72,77,73,71,97,86,59,0.00,40.00,6,2,13,0.63
2013-8-27,90,77,70,78,71,69,97,86,53,0.00,40.00,5,1,13,0.70
2013-8-28,88,79,72,74,72,69,97,81,54,0.00,40.00,4,2,11,0.98
2013-8-29,92,80,72,75,73,71,97,81,52,0.00,40.00,3,1,7,0.06
2013-8-30,91,80,71,80,73,69,97,80,51,0.00,40.00,4,1,11,0.01
2013-8-31,92,79,72,75,72,70,97,81,53,0.00,40.00,6,2,12,0.00
2013-9-1,93,77,72,77,71,-100,97,85,52,0.00,40.00,5,1,13,0.03
2013-9-2,89,76,71,81,72,70,97,91,68,0.00,40.00,4,1,11,0.68
2013-9-3,94,80,70,79,72,69,97,81,46,0.00,40.00,4,1,8,0.01
2013-9-4,92,78,74,78,75,73,97,92,62,0.00,40.00,4,1,15,0.20
2013-9-5,93,80,75,78,76,72,98,87,50,0.00,40.00,4,1,13,0.07
2013-9-6,96,82,72,79,73,70,98,80,45,0.00,40.00,4,2,12,1.54
2013-9-7,89,78,72,76,73,69,97,85,60,0.00,40.00,3,2,13,1.66
2013-9-8,91,77,70,74,70,-100,97,84,52,0.00,40.00,4,2,13,0.65
2013-9-9,89,79,72,77,73,71,97,85,57,0.00,40.00,5,1,14,0.68
2013-9-10,90,79,72,75,73,71,97,83,56,0.00,40.00,6,2,20,0.32
2013-9-11,87,78,73,76,74,72,97,88,65,0.00,40.00,6,1,21,0.57
2013-9-12,87,79,72,77,74,71,97,86,63,0.00,40.00,5,1,14,1.76
2013-9-13,94,80,70,76,72,69,97,79,44,0.00,40.00,4,1,11,1.76
2013-9-14,93,81,71,77,73,70,97,78,48,0.00,40.00,4,1,10,0.00
2013-9-15,79,74,73,76,71,-100,97,94,92,0.00,40.00,2,1,9,0.59
2013-9-16,88,78,74,77,74,73,97,88,63,0.00,40.00,5,2,15,0.14
2013-9-17,87,76,74,76,73,70,97,91,64,0.00,40.00,6,1,15,0.11
2013-9-18,75,74,73,74,73,72,97,97,97,0.00,40.00,2,1,6,2.12
2013-9-19,92,79,70,76,72,69,97,84,52,0.00,40.00,4,1,13,0.22
2013-9-20,89,80,72,74,71,68,97,77,51,0.00,40.00,5,2,11,0.00
2013-9-21,92,78,70,74,71,69,97,80,48,0.00,40.00,4,1,11,0.00
2013-9-22,91,79,70,78,71,-100,97,81,55,0.00,40.00,5,2,13,0.00
2013-9-23,87,79,74,78,76,73,97,90,72,0.00,40.00,4,1,14,0.38
2013-9-24,89,79,73,79,74,70,97,87,64,0.00,40.00,7,2,19,0.17
2013-9-25,86,76,71,76,73,70,97,89,68,0.00,40.00,6,2,13,0.05
2013-9-26,88,78,72,82,75,71,97,92,72,0.00,40.00,6,2,17,0.57
2013-9-27,89,78,71,75,71,67,97,81,50,0.00,40.00,4,2,12,0.08
2013-9-28,92,78,70,73,71,69,97,81,49,0.00,40.00,4,2,13,0.03
2013-9-29,88,77,69,74,69,-100,97,80,55,0.00,40.00,4,1,10,0.04
2013-9-30,93,78,68,75,70,67,97,80,46,0.00,40.00,3,1,9,1.33
2013-10-1,81,77,72,71,69,69,96,77,68,0.00,40.00,3,2,8,1.08
2013-10-2,89,78,72,76,72,70,95,82,58,0.00,40.00,6,2,16,0.08
2013-10-3,89,77,72,76,73,71,96,87,59,0.00,40.00,4,1,12,0.71
2013-10-4,89,78,72,76,72,69,97,83,52,0.00,40.00,4,1,10,0.04
2013-10-5,91,79,69,73,69,63,97,76,39,0.00,40.00,3,1,8,0.00
2013-10-6,91,77,70,75,71,69,97,82,49,0.00,40.00,4,1,9,0.01
2013-10-7,88,78,70,78,73,69,97,86,61,0.00,40.00,8,2,15,0.28
2013-10-8,89,78,68,78,71,67,97,82,53,0.00,40.00,6,2,14,0.21
2013-10-9,89,77,68,75,70,67,97,82,51,0.00,40.00,5,2,11,0.01
2013-10-10,90,78,69,71,69,66,95,75,48,0.00,40.00,5,2,13,0.00
2013-10-11,90,76,65,71,66,61,97,75,38,0.00,40.00,5,1,12,0.00
2013-10-12,91,76,63,72,66,62,97,76,40,0.00,40.00,4,1,9,0.00
2013-10-13,87,76,69,72,65,-100,97,74,44,0.00,40.00,5,2,10,0.00
2013-10-14,88,74,65,69,65,63,97,76,44,0.00,40.00,5,2,12,0.00
2013-10-15,89,75,66,70,66,62,97,78,42,0.00,40.00,4,2,10,0.00
2013-10-16,91,76,65,72,67,64,97,78,41,0.00,40.00,4,1,9,0.00
2013-10-17,89,76,68,74,70,67,97,83,49,0.00,40.00,4,1,9,0.00
2013-10-18,94,78,66,74,69,65,97,78,40,0.00,40.00,4,1,10,0.00
2013-10-19,92,78,68,75,71,67,97,81,47,0.00,40.00,5,2,11,0.00
2013-10-20,92,79,70,77,69,-100,97,79,47,0.00,40.00,4,1,10,0.00
2013-10-21,90,78,69,76,72,68,97,84,57,0.00,40.00,5,1,13,0.00
2013-10-22,91,79,70,76,72,69,97,82,52,0.00,40.00,7,2,14,0.00
2013-10-23,87,76,70,76,70,65,97,83,57,0.00,40.00,6,2,12,0.04
2013-10-24,76,71,67,67,59,52,87,66,56,0.00,40.00,5,3,12,0.04
2013-10-25,84,72,63,63,61,58,89,71,46,0.00,40.00,6,3,16,0.00
2013-10-26,86,71,62,62,60,58,95,73,41,0.00,40.00,5,2,11,0.00
2013-10-27,85,69,60,63,58,-100,97,74,39,0.00,40.00,5,2,12,0.00
2013-10-28,87,71,60,67,61,-100,97,77,42,0.00,40.00,5,2,12,0.00
2013-10-29,89,73,61,67,64,60,97,77,45,0.00,40.00,6,2,13,0.00
2013-10-30,87,73,63,69,63,58,97,75,38,0.00,40.00,6,2,16,0.00
2013-10-31,89,73,63,69,65,62,97,79,42,0.00,40.00,5,1,13,0.00
2013-11-1,89,74,64,72,66,63,97,80,42,0.00,40.00,6,2,12,0.00
2013-11-2,87,74,65,74,67,61,97,81,51,0.00,40.00,7,2,14,0.00
2013-11-3,82,71,64,63,54,-100,81,59,33,0.00,40.00,7,4,16,0.00
2013-11-4,82,70,59,65,59,53,87,70,49,0.00,40.00,7,4,17,0.00
2013-11-5,84,74,67,69,66,64,92,77,54,0.00,40.00,8,4,20,0.01
2013-11-6,89,76,67,69,68,66,96,78,49,0.00,40.00,6,2,16,0.01
2013-11-7,87,73,65,71,66,64,97,82,49,0.00,40.00,4,2,9,0.00
2013-11-8,84,73,64,69,66,63,97,79,59,0.00,40.00,7,3,16,0.00
2013-11-9,79,73,69,72,67,-100,95,85,73,0.00,40.00,7,3,18,0.00
2013-11-10,84,76,70,70,68,66,90,78,59,0.00,40.00,5,3,13,0.00
2013-11-11,87,75,66,69,67,65,96,78,51,0.00,40.00,6,2,13,0.00
2013-11-12,84,73,64,70,66,63,97,79,51,0.00,40.00,4,2,9,0.00
2013-11-13,73,68,60,66,58,52,88,72,63,0.00,40.00,7,5,19,0.00
2013-11-14,80,66,55,58,55,52,93,70,42,0.00,40.00,7,3,16,0.00
2013-11-15,82,72,63,68,63,58,89,75,55,0.00,40.00,5,2,14,0.00
2013-11-16,81,73,68,70,65,-100,94,78,61,0.00,40.00,4,2,11,0.01
2013-11-17,89,75,65,71,66,64,97,79,46,0.00,40.00,5,2,16,0.01
2013-11-18,88,74,64,72,67,63,97,82,50,0.00,40.00,3,1,7,0.00
2013-11-19,87,74,66,71,68,65,97,81,50,0.00,40.00,4,1,8,0.00
2013-11-20,86,73,65,73,68,64,97,86,56,0.00,40.00,2,1,9,0.00
2013-11-21,86,75,67,73,69,66,97,82,56,0.00,40.00,3,1,9,0.00
2013-11-22,84,74,69,70,68,67,96,83,60,0.00,40.00,5,2,15,0.00
2013-11-23,87,73,65,71,67,-100,100,86,58,0.00,40.00,6,2,15,2.61
2013-11-24,81,71,64,71,66,64,100,87,61,0.00,40.00,6,3,17,2.61
2013-11-25,79,71,66,67,63,61,89,75,57,0.00,40.00,7,5,19,0.00
2013-11-26,87,76,69,74,71,67,100,87,57,0.00,40.00,8,3,20,0.70
2013-11-27,78,70,57,73,63,51,100,80,48,0.00,40.00,6,4,17,0.95
2013-11-28,73,58,43,56,48,39,90,74,49,0.00,40.00,6,4,18,0.03
2013-11-29,79,65,54,62,57,53,99,78,51,0.00,40.00,7,4,18,0.00
2013-11-30,79,66,57,67,60,-100,100,85,61,0.00,40.00,6,4,16,0.00
2013-12-1,78,67,60,67,64,60,100,91,65,0.00,40.00,5,3,11,0.00
2013-12-2,80,67,61,65,63,59,100,87,49,0.00,40.00,4,2,9,0.00
2013-12-3,82,67,57,66,62,57,100,86,53,0.00,40.00,6,1,14,0.00
2013-12-4,84,70,60,71,65,60,100,87,55,0.00,40.00,5,1,12,0.00
2013-12-5,86,71,60,70,65,60,100,85,49,0.00,40.00,4,2,11,0.00
2013-12-6,88,72,62,73,66,62,100,85,51,0.00,40.00,5,2,13,0.00
2013-12-7,87,70,59,71,63,-100,100,82,47,0.00,40.00,5,2,12,0.00
2013-12-8,88,72,63,71,66,63,100,83,47,0.00,40.00,6,2,12,0.00
2013-12-9,88,72,63,72,65,61,100,83,40,0.00,40.00,5,2,13,0.00
2013-12-10,88,72,62,72,66,62,100,85,48,0.00,40.00,4,1,10,0.00
2013-12-11,86,73,63,72,68,63,100,88,56,0.00,40.00,5,2,12,0.15
2013-12-12,72,67,58,70,64,48,100,90,67,0.00,40.00,5,3,12,0.15
2013-12-13,82,66,52,64,58,47,98,75,54,0.00,40.00,5,3,14,0.01
2013-12-14,87,73,64,71,66,-100,100,84,52,0.00,40.00,6,3,14,0.00
2013-12-15,78,71,67,76,70,66,100,97,83,0.00,40.00,4,2,15,0.11
2013-12-16,76,66,57,66,59,55,94,79,56,0.00,40.00,5,3,13,0.03
2013-12-17,79,62,50,63,56,45,98,81,54,0.00,40.00,5,3,12,0.00
2013-12-18,76,61,50,57,49,38,100,72,25,0.00,40.00,6,3,15,0.00
2013-12-19,81,62,49,59,55,48,100,81,43,0.00,40.00,6,2,14,0.00
2013-12-20,84,69,57,68,64,57,100,86,58,0.00,40.00,6,2,16,0.00
2013-12-21,88,73,64,72,66,-100,100,84,52,0.00,40.00,5,2,17,0.00
2013-12-22,89,74,65,73,68,65,100,84,45,0.00,40.00,6,2,18,0.00
2013-12-23,87,73,65,74,68,65,100,87,53,0.00,40.00,7,2,14,0.00
2013-12-24,78,67,59,69,62,41,100,84,48,0.00,40.00,5,3,16,0.00
2013-12-25,82,68,57,64,58,49,86,72,54,0.00,40.00,6,4,14,0.00
2013-12-26,82,70,62,69,66,61,100,86,61,0.00,40.00,5,3,12,0.00
2013-12-27,84,73,66,69,67,66,100,84,58,0.00,40.00,6,4,15,0.00
2013-12-28,84,72,67,72,67,-100,100,87,63,0.00,40.00,6,3,16,0.00
2013-12-29,79,73,69,76,72,69,100,96,83,0.00,40.00,7,3,20,0.04
2013-12-30,79,71,66,71,64,61,100,82,59,0.00,40.00,4,2,11,0.01
2013-12-31,79,69,63,63,59,56,91,73,48,0.00,40.00,7,4,16,0.00
2014-1-1,86,71,63,75,66,61,100,87,57,0.00,40.00,5,2,14,0.16
2014-1-2,84,71,61,74,67,61,100,89,57,0.00,40.00,7,3,17,0.06